Mill Rose Farm Restricted Landing Area

Jump to: basic info | weather | runways | comments

Related pages: nearby airports | nearby navaids | notams | map

Basic information (top)

Codes: IL68
Location: lon 42.077202, lat -88.159798, elev 850 ft / 259 m msl
Status: small_airport

Weather (top)

Current conditions for Dupage Airport 11nm (20km) SSW (rec'd 2014/08/01 00:52Z):

KDPA 010052Z 24005KT 10SM CLR 24/16 A3003 RMK AO2 SLP163 T02390156

Airport forecast for Dupage Airport 11nm (20km) SSW (rec'd 2014/07/31 00:21Z):

TAF KDPA 312320Z 0100/0124 27011KT P6SM FEW060 
     FM010200 24004KT P6SM FEW250 
     FM010800 VRB03KT 5SM BR FEW250 
     FM011500 23006KT P6SM VCSH BKN050 PROB30 0117/0121 5SM TSRA BKN050CB

Runways (top)

N/S: 2,500 x 100 ft (762 x 30 m) — grass — lighted

Latest comments (top)

No comments yet for Mill Rose Farm Restricted Landing Area

More... (top)

See also NOTAMs and nearby airports and navaids, or visit the Mill Rose Farm Restricted Landing Area page at the main OurAirports website..